createdAt,value
2022-07-29T00:01:50.008Z,62.04
2022-07-29T00:04:16.980Z,59.87
2022-07-29T00:06:43.812Z,59.51
2022-07-29T00:09:10.399Z,61.54
2022-07-29T00:11:37.027Z,61.36
2022-07-29T00:14:03.704Z,59.88
2022-07-29T00:16:30.422Z,61.22
2022-07-29T00:18:59.547Z,62.15
2022-07-29T00:21:28.521Z,61.68
2022-07-29T00:23:54.990Z,63.44
2022-07-29T00:26:21.458Z,61.76
2022-07-29T00:28:47.925Z,62.85
2022-07-29T00:31:14.551Z,62.90
2022-07-29T00:33:41.023Z,62.63
2022-07-29T00:36:07.559Z,63.69
2022-07-29T00:38:37.000Z,62.78
2022-07-29T00:41:03.561Z,62.46
2022-07-29T00:43:30.068Z,62.38
2022-07-29T00:45:56.605Z,62.93
2022-07-29T00:48:23.086Z,63.13
2022-07-29T00:50:50.637Z,62.54
2022-07-29T00:53:17.286Z,63.36
2022-07-29T00:55:43.901Z,64.03
2022-07-29T00:58:13.202Z,65.50
2022-07-29T01:00:41.752Z,64.32
2022-07-29T01:03:08.935Z,64.17
2022-07-29T01:05:49.632Z,63.71
2022-07-29T01:08:18.338Z,63.29
2022-07-29T01:10:45.173Z,63.75
2022-07-29T01:13:11.969Z,63.01
2022-07-29T01:15:49.233Z,64.23
2022-07-29T01:18:22.177Z,62.58
2022-07-29T01:21:16.881Z,63.66
2022-07-29T01:24:10.718Z,63.80
2022-07-29T01:26:49.162Z,63.87
2022-07-29T01:29:19.038Z,64.04
2022-07-29T01:31:58.967Z,64.09
2022-07-29T01:34:33.605Z,63.82
2022-07-29T01:37:16.817Z,63.53
2022-07-29T01:39:44.620Z,63.67
2022-07-29T01:42:14.172Z,64.13
2022-07-29T01:44:51.676Z,64.25
2022-07-29T01:47:32.233Z,63.98
2022-07-29T01:49:59.631Z,64.33
2022-07-29T01:52:43.298Z,65.02
2022-07-29T01:55:14.588Z,65.62
2022-07-29T01:57:44.255Z,64.36
2022-07-29T02:00:11.837Z,65.39
2022-07-29T02:02:40.608Z,66.25
2022-07-29T02:05:09.356Z,66.96
2022-07-29T02:07:37.431Z,66.34
2022-07-29T02:10:05.098Z,67.00
2022-07-29T02:12:32.541Z,65.82
2022-07-29T02:15:01.099Z,65.88
2022-07-29T02:17:32.013Z,67.39
2022-07-29T02:20:01.042Z,66.08
2022-07-29T02:22:29.799Z,65.83
2022-07-29T02:24:56.939Z,66.72
2022-07-29T02:27:24.843Z,66.17
2022-07-29T02:29:52.329Z,65.72
2022-07-29T02:32:19.100Z,67.00
2022-07-29T02:34:45.836Z,66.91
2022-07-29T02:37:13.040Z,66.72
2022-07-29T02:39:42.183Z,66.92
2022-07-29T02:42:12.733Z,68.03
2022-07-29T02:44:39.261Z,67.24
2022-07-29T02:47:18.669Z,67.44
2022-07-29T02:49:53.441Z,68.08
2022-07-29T02:52:24.285Z,67.85
2022-07-29T02:54:59.691Z,68.21
2022-07-29T02:57:54.733Z,67.23
2022-07-29T03:00:23.475Z,68.81
2022-07-29T03:02:52.520Z,67.83
2022-07-29T03:05:20.978Z,68.38
2022-07-29T03:08:01.487Z,68.73
2022-07-29T03:10:28.361Z,68.59
2022-07-29T03:12:56.597Z,69.24
2022-07-29T03:15:23.224Z,69.46
2022-07-29T03:17:52.703Z,68.10
2022-07-29T03:20:19.631Z,68.96
2022-07-29T03:22:48.003Z,67.80
2022-07-29T03:25:19.063Z,66.32
2022-07-29T03:27:45.876Z,69.35
2022-07-29T03:30:18.314Z,69.46
2022-07-29T03:32:48.565Z,69.76
2022-07-29T03:35:17.432Z,69.61
2022-07-29T03:37:44.834Z,69.85
2022-07-29T03:40:13.696Z,70.45
2022-07-29T03:42:41.561Z,69.04
2022-07-29T03:45:11.042Z,69.76
2022-07-29T03:47:49.612Z,69.88
2022-07-29T03:50:18.068Z,68.68
2022-07-29T03:52:45.416Z,70.08
2022-07-29T03:55:12.151Z,70.34
2022-07-29T03:57:39.295Z,70.04
2022-07-29T04:00:06.816Z,71.62
2022-07-29T04:02:33.562Z,71.26
2022-07-29T04:05:00.846Z,70.81
2022-07-29T04:07:27.438Z,69.84
2022-07-29T04:09:53.966Z,70.18
2022-07-29T04:12:22.150Z,69.30
2022-07-29T04:14:49.629Z,68.25
2022-07-29T04:17:16.082Z,69.12
2022-07-29T04:19:42.560Z,69.60
2022-07-29T04:22:09.005Z,69.28
2022-07-29T04:24:35.605Z,68.26
2022-07-29T04:27:02.070Z,69.60
2022-07-29T04:29:28.568Z,70.97
2022-07-29T04:31:55.061Z,72.35
2022-07-29T04:34:21.525Z,70.93
2022-07-29T04:36:47.948Z,71.85
2022-07-29T04:39:18.082Z,72.58
2022-07-29T04:41:48.154Z,71.68
2022-07-29T04:44:14.841Z,70.80
2022-07-29T04:46:41.461Z,70.47
2022-07-29T04:49:08.193Z,71.40
2022-07-29T04:51:35.345Z,70.66
2022-07-29T04:54:01.988Z,72.34
2022-07-29T04:56:28.626Z,71.61
2022-07-29T04:58:55.145Z,71.87
2022-07-29T05:01:21.680Z,71.46
2022-07-29T05:03:48.256Z,71.04
2022-07-29T05:06:14.725Z,70.63
2022-07-29T05:08:42.042Z,70.02
2022-07-29T05:11:12.443Z,69.65
2022-07-29T05:13:45.898Z,69.06
2022-07-29T05:16:14.207Z,69.17
2022-07-29T05:18:40.876Z,68.39
2022-07-29T05:21:07.322Z,68.89
2022-07-29T05:23:33.841Z,67.62
2022-07-29T05:26:00.378Z,66.42
2022-07-29T05:28:26.832Z,65.66
2022-07-29T05:30:53.376Z,64.90
2022-07-29T05:33:35.176Z,63.93
2022-07-29T05:36:08.185Z,62.93
2022-07-29T05:38:38.255Z,62.23
2022-07-29T05:41:06.047Z,61.77
2022-07-29T05:43:32.976Z,61.32
2022-07-29T05:45:59.607Z,60.89
2022-07-29T05:48:26.318Z,60.44
2022-07-29T05:50:52.813Z,59.40
2022-07-29T05:53:20.855Z,59.30
2022-07-29T05:55:48.580Z,60.26
2022-07-29T05:58:15.137Z,58.52
2022-07-29T06:00:43.000Z,59.53
2022-07-29T06:03:09.456Z,59.86
2022-07-29T06:05:36.016Z,57.55
2022-07-29T06:08:02.652Z,56.57
2022-07-29T06:10:29.172Z,53.10
2022-07-29T06:12:55.983Z,52.54
2022-07-29T06:15:22.515Z,51.04
2022-07-29T06:18:00.354Z,49.61
2022-07-29T06:20:30.756Z,49.32
2022-07-29T06:22:57.667Z,48.73
2022-07-29T06:25:24.436Z,48.53
2022-07-29T06:27:50.966Z,48.96
2022-07-29T06:30:17.537Z,49.46
2022-07-29T06:32:43.980Z,50.49
2022-07-29T06:35:37.726Z,48.22
2022-07-29T06:37:59.592Z,47.68
2022-07-29T06:40:45.576Z,46.86
2022-07-29T06:43:12.238Z,45.09
2022-07-29T06:45:42.189Z,45.66
2022-07-29T06:48:09.220Z,44.78
2022-07-29T06:50:35.685Z,44.83
2022-07-29T06:53:02.163Z,44.44
2022-07-29T06:55:28.749Z,45.81
2022-07-29T06:57:55.198Z,43.58
2022-07-29T07:00:21.795Z,43.02
2022-07-29T07:02:48.875Z,42.45
2022-07-29T07:05:15.433Z,43.04
2022-07-29T07:07:41.902Z,42.72
2022-07-29T07:10:08.744Z,42.87
2022-07-29T07:12:35.168Z,41.82
2022-07-29T07:15:01.782Z,42.45
2022-07-29T07:17:28.273Z,42.75
2022-07-29T07:19:54.687Z,43.09
2022-07-29T07:22:21.220Z,43.13
2022-07-29T07:24:47.721Z,43.23
2022-07-29T07:27:14.251Z,42.86
2022-07-29T07:29:42.102Z,43.20
2022-07-29T07:32:11.033Z,43.91
2022-07-29T07:34:38.886Z,43.90
2022-07-29T07:37:06.182Z,45.09
2022-07-29T07:39:32.771Z,43.60
2022-07-29T07:41:59.367Z,43.61
2022-07-29T07:44:25.822Z,44.28
2022-07-29T07:46:52.397Z,44.21
2022-07-29T07:49:19.731Z,44.56
2022-07-29T07:51:50.697Z,43.41
2022-07-29T07:54:18.143Z,42.79
2022-07-29T07:56:45.185Z,42.90
2022-07-29T07:59:11.637Z,42.06
2022-07-29T08:01:48.422Z,41.11
2022-07-29T08:04:27.477Z,40.32
2022-07-29T08:06:57.765Z,40.38
2022-07-29T08:09:30.386Z,41.59
2022-07-29T08:11:58.586Z,40.88
2022-07-29T08:14:25.133Z,41.97
2022-07-29T08:16:52.324Z,41.42
2022-07-29T08:19:19.106Z,43.63
2022-07-29T08:21:45.549Z,42.55
2022-07-29T08:24:30.603Z,41.36
2022-07-29T08:26:57.105Z,41.84
2022-07-29T08:29:23.645Z,41.88
2022-07-29T08:31:50.367Z,41.08
2022-07-29T08:34:17.112Z,42.29
2022-07-29T08:36:43.559Z,41.35
2022-07-29T08:39:10.213Z,40.73
2022-07-29T08:41:36.670Z,41.49
2022-07-29T08:44:03.281Z,41.54
2022-07-29T08:46:29.768Z,41.65
2022-07-29T08:48:56.480Z,42.39
2022-07-29T08:51:23.325Z,41.38
2022-07-29T08:53:51.027Z,40.70
2022-07-29T08:56:19.094Z,41.12
2022-07-29T08:58:52.033Z,40.22
2022-07-29T09:01:36.511Z,40.50
2022-07-29T09:04:10.653Z,39.42
2022-07-29T09:06:39.475Z,40.26
2022-07-29T09:09:06.346Z,40.06
2022-07-29T09:11:33.499Z,39.50
2022-07-29T09:14:00.346Z,39.22
2022-07-29T09:16:50.971Z,38.99
2022-07-29T09:19:26.402Z,37.18
2022-07-29T09:21:59.370Z,35.61
2022-07-29T09:24:40.501Z,36.15
2022-07-29T09:27:19.940Z,36.57
2022-07-29T09:29:46.584Z,37.07
2022-07-29T09:32:13.348Z,36.51
2022-07-29T09:34:39.819Z,36.54
2022-07-29T09:37:06.435Z,36.27
2022-07-29T09:39:49.205Z,36.98
2022-07-29T09:42:29.294Z,35.78
2022-07-29T09:44:55.768Z,36.14
2022-07-29T09:47:26.854Z,36.09
2022-07-29T09:49:59.138Z,34.42
2022-07-29T09:52:30.675Z,34.45
2022-07-29T09:55:07.449Z,33.91
2022-07-29T09:57:33.911Z,34.03
2022-07-29T10:00:03.899Z,34.12
2022-07-29T10:02:34.499Z,33.54
2022-07-29T10:05:03.051Z,34.90
2022-07-29T10:07:53.312Z,31.47
2022-07-29T10:10:28.866Z,31.75
2022-07-29T10:12:56.179Z,32.71
2022-07-29T10:15:24.751Z,33.27
2022-07-29T10:17:52.359Z,33.27
2022-07-29T10:20:19.582Z,32.79
2022-07-29T10:22:53.520Z,30.72
2022-07-29T10:25:21.463Z,31.64
2022-07-29T10:27:48.773Z,30.29
2022-07-29T10:30:16.437Z,31.50
2022-07-29T10:33:04.495Z,29.98
2022-07-29T10:35:45.021Z,28.63
2022-07-29T10:38:45.793Z,29.15
2022-07-29T10:41:55.415Z,29.25
2022-07-29T10:44:24.557Z,30.19
2022-07-29T10:46:52.251Z,29.92
2022-07-29T10:49:20.200Z,27.94
2022-07-29T10:52:03.644Z,27.92
2022-07-29T10:54:48.435Z,28.92
2022-07-29T10:57:53.284Z,28.33
2022-07-29T11:00:12.654Z,27.01
2022-07-29T11:02:45.343Z,28.36
2022-07-29T11:05:13.610Z,27.27
2022-07-29T11:08:02.338Z,28.32
2022-07-29T11:10:31.308Z,29.20
2022-07-29T11:12:59.103Z,28.66
2022-07-29T11:15:25.654Z,29.34
2022-07-29T11:17:55.187Z,29.10
2022-07-29T11:20:38.719Z,29.72
2022-07-29T11:23:36.486Z,29.65
2022-07-29T11:26:28.377Z,29.39
2022-07-29T11:29:04.617Z,29.72
2022-07-29T11:31:44.322Z,29.73
2022-07-29T11:34:22.586Z,28.43
2022-07-29T11:37:07.594Z,28.69
2022-07-29T11:39:36.803Z,29.02
2022-07-29T11:42:32.459Z,29.64
2022-07-29T11:45:41.751Z,30.31
2022-07-29T11:48:03.669Z,30.13
2022-07-29T11:50:45.738Z,30.94
2022-07-29T11:53:15.115Z,29.76
2022-07-29T11:55:51.018Z,29.06
2022-07-29T12:01:14.981Z,28.48
2022-07-29T12:03:43.632Z,29.87
2022-07-29T12:06:14.904Z,29.53
2022-07-29T12:08:46.013Z,30.80
2022-07-29T12:11:22.503Z,31.25
2022-07-29T12:13:51.488Z,31.60
2022-07-29T12:16:26.134Z,31.18
2022-07-29T12:19:02.097Z,31.84
2022-07-29T12:21:30.207Z,31.93
2022-07-29T12:24:03.348Z,32.97
2022-07-29T12:26:34.132Z,31.37
2022-07-29T12:29:03.381Z,32.02
2022-07-29T12:31:42.202Z,32.30
2022-07-29T12:34:16.410Z,32.22
2022-07-29T12:36:43.803Z,34.71
2022-07-29T12:39:11.542Z,32.98
2022-07-29T12:41:38.469Z,31.80
2022-07-29T12:44:07.982Z,31.57
2022-07-29T12:46:34.610Z,31.53
2022-07-29T12:49:01.240Z,31.69
2022-07-29T12:51:34.672Z,30.98
2022-07-29T12:54:11.691Z,31.16
2022-07-29T12:56:43.693Z,31.06
2022-07-29T12:59:14.521Z,31.10
2022-07-29T13:01:41.137Z,30.27
2022-07-29T13:04:07.714Z,30.58
2022-07-29T13:06:49.674Z,30.96
2022-07-29T13:09:20.110Z,30.76
2022-07-29T13:11:51.028Z,32.61
2022-07-29T13:14:38.571Z,30.95
2022-07-29T13:17:13.426Z,31.92
2022-07-29T13:19:54.244Z,31.25
2022-07-29T13:22:36.644Z,31.33
2022-07-29T13:25:03.874Z,30.10
2022-07-29T13:27:33.480Z,30.87
2022-07-29T13:30:01.746Z,31.10
2022-07-29T13:32:30.418Z,29.82
2022-07-29T13:34:58.564Z,29.47
2022-07-29T13:37:25.711Z,29.04
2022-07-29T13:39:58.064Z,29.67
2022-07-29T13:42:27.742Z,28.67
2022-07-29T13:44:56.462Z,29.31
2022-07-29T13:47:35.072Z,28.11
2022-07-29T13:50:02.331Z,28.70
2022-07-29T13:52:29.280Z,29.40
2022-07-29T13:55:00.582Z,29.78
2022-07-29T13:57:40.664Z,28.67
2022-07-29T14:00:13.955Z,29.12
2022-07-29T14:02:43.734Z,29.42
2022-07-29T14:05:11.116Z,28.76
2022-07-29T14:07:39.859Z,30.00
2022-07-29T14:10:07.242Z,31.43
2022-07-29T14:12:33.918Z,31.84
2022-07-29T14:15:00.418Z,31.26
2022-07-29T14:17:27.131Z,31.07
2022-07-29T14:19:58.257Z,30.29
2022-07-29T14:22:26.960Z,31.43
2022-07-29T14:24:55.489Z,31.13
2022-07-29T14:27:37.685Z,29.49
2022-07-29T14:30:08.167Z,29.91
2022-07-29T14:32:34.693Z,29.93
2022-07-29T14:35:01.181Z,30.19
2022-07-29T14:37:27.790Z,31.10
2022-07-29T14:40:06.532Z,29.55
2022-07-29T14:42:33.137Z,30.35
2022-07-29T14:44:59.730Z,30.57
2022-07-29T14:47:30.784Z,29.86
2022-07-29T14:49:57.364Z,30.29
2022-07-29T14:52:23.885Z,30.87
2022-07-29T14:54:50.441Z,30.92
2022-07-29T14:57:17.411Z,30.81
2022-07-29T14:59:43.933Z,31.75
2022-07-29T15:02:10.934Z,31.15
2022-07-29T15:04:55.893Z,31.60
2022-07-29T15:07:48.206Z,30.88
2022-07-29T15:10:15.681Z,29.52
2022-07-29T15:12:42.276Z,31.36
2022-07-29T15:15:09.832Z,31.35
2022-07-29T15:17:36.560Z,30.64
2022-07-29T15:20:04.034Z,30.91
2022-07-29T15:22:30.567Z,30.77
2022-07-29T15:24:57.293Z,31.14
2022-07-29T15:27:23.861Z,31.67
2022-07-29T15:29:50.496Z,31.29
2022-07-29T15:32:19.838Z,30.39
2022-07-29T15:34:46.541Z,29.69
2022-07-29T15:37:13.071Z,29.89
2022-07-29T15:39:39.872Z,29.92
2022-07-29T15:42:06.674Z,30.07
2022-07-29T15:44:33.348Z,31.02
2022-07-29T15:47:08.412Z,30.90
2022-07-29T15:49:47.402Z,31.01
2022-07-29T15:52:26.876Z,30.82
2022-07-29T15:54:59.055Z,30.87
2022-07-29T15:57:26.049Z,30.44
2022-07-29T15:59:53.005Z,31.51
2022-07-29T16:02:19.866Z,30.96
2022-07-29T16:04:47.227Z,30.99
2022-07-29T16:07:14.310Z,31.02
2022-07-29T16:09:41.263Z,30.84
2022-07-29T16:12:14.736Z,30.90
2022-07-29T16:14:43.355Z,30.53
2022-07-29T16:17:14.249Z,31.17
2022-07-29T16:19:41.934Z,31.62
2022-07-29T16:22:08.440Z,31.46
2022-07-29T16:24:34.970Z,31.23
2022-07-29T16:27:02.067Z,32.35
2022-07-29T16:29:29.083Z,31.39
2022-07-29T16:31:55.660Z,32.16
2022-07-29T16:34:22.256Z,32.01
2022-07-29T16:36:48.752Z,33.34
2022-07-29T16:39:15.530Z,33.15
2022-07-29T16:41:42.293Z,33.22
2022-07-29T16:44:08.756Z,33.50
2022-07-29T16:46:37.410Z,34.16
2022-07-29T16:49:05.661Z,34.54
2022-07-29T16:51:32.675Z,34.00
2022-07-29T16:53:59.214Z,34.44
2022-07-29T16:56:25.742Z,35.48
2022-07-29T16:58:52.206Z,38.22
2022-07-29T17:01:18.859Z,37.90
2022-07-29T17:04:03.866Z,40.10
2022-07-29T17:06:30.451Z,38.17
2022-07-29T17:08:57.124Z,37.64
2022-07-29T17:11:53.270Z,36.63
2022-07-29T17:14:10.646Z,37.17
2022-07-29T17:16:37.199Z,35.81
2022-07-29T17:19:03.732Z,35.31
2022-07-29T17:21:30.268Z,35.25
2022-07-29T17:23:58.713Z,35.64
2022-07-29T17:26:26.830Z,35.16
2022-07-29T17:28:55.067Z,35.44
2022-07-29T17:31:21.849Z,34.56
2022-07-29T17:33:48.548Z,34.84
2022-07-29T17:36:24.007Z,35.40
2022-07-29T17:38:51.617Z,35.21
2022-07-29T17:41:18.381Z,35.44
2022-07-29T17:43:44.980Z,35.97
2022-07-29T17:46:11.551Z,36.32
2022-07-29T17:48:38.211Z,35.18
2022-07-29T17:51:04.804Z,34.83
2022-07-29T17:53:31.402Z,35.74
2022-07-29T17:55:58.685Z,35.22
2022-07-29T17:58:27.768Z,36.14
2022-07-29T18:00:54.288Z,35.58
2022-07-29T18:03:21.259Z,35.74
2022-07-29T18:05:51.516Z,35.53
2022-07-29T18:08:18.321Z,35.78
2022-07-29T18:10:45.981Z,36.18
2022-07-29T18:13:12.948Z,36.28
2022-07-29T18:15:40.624Z,35.48
2022-07-29T18:18:07.637Z,36.66
2022-07-29T18:20:34.511Z,36.25
2022-07-29T18:23:01.348Z,36.49
2022-07-29T18:25:28.927Z,37.51
2022-07-29T18:27:59.992Z,38.28
2022-07-29T18:30:27.390Z,39.32
2022-07-29T18:33:19.144Z,39.17
2022-07-29T18:35:40.820Z,39.96
2022-07-29T18:38:07.341Z,40.53
2022-07-29T18:40:34.015Z,40.64
2022-07-29T18:43:00.585Z,40.93
2022-07-29T18:45:28.572Z,41.26
2022-07-29T18:47:56.351Z,40.79
2022-07-29T18:50:28.944Z,41.29
2022-07-29T18:52:58.692Z,41.31
2022-07-29T18:55:26.011Z,41.65
2022-07-29T18:57:57.465Z,41.35
2022-07-29T19:00:25.519Z,42.58
2022-07-29T19:02:53.094Z,42.38
2022-07-29T19:05:21.268Z,42.45
2022-07-29T19:07:48.468Z,42.18
2022-07-29T19:10:16.037Z,42.95
2022-07-29T19:12:45.622Z,43.66
2022-07-29T19:15:20.310Z,44.60
2022-07-29T19:17:49.009Z,44.44
2022-07-29T19:20:18.483Z,44.63
2022-07-29T19:22:49.253Z,44.51
2022-07-29T19:25:19.558Z,45.01
2022-07-29T19:27:51.282Z,45.02
2022-07-29T19:30:18.890Z,44.59
2022-07-29T19:32:48.746Z,44.69
2022-07-29T19:35:25.446Z,44.38
2022-07-29T19:37:59.015Z,45.34
2022-07-29T19:40:26.616Z,45.71
2022-07-29T19:42:54.302Z,45.04
2022-07-29T19:45:25.994Z,45.80
2022-07-29T19:47:57.718Z,45.92
2022-07-29T19:50:27.649Z,45.92
2022-07-29T19:52:56.346Z,46.09
2022-07-29T19:55:23.605Z,45.91
2022-07-29T19:57:51.070Z,46.80
2022-07-29T20:00:20.301Z,46.63
2022-07-29T20:02:48.303Z,46.63
2022-07-29T20:05:17.841Z,46.63
2022-07-29T20:07:44.613Z,46.43
2022-07-29T20:10:11.379Z,46.51
2022-07-29T20:12:38.856Z,47.25
2022-07-29T20:15:10.637Z,48.20
2022-07-29T20:17:45.691Z,47.53
2022-07-29T20:20:15.661Z,47.96
2022-07-29T20:22:42.991Z,47.73
2022-07-29T20:25:13.521Z,48.36
2022-07-29T20:27:40.653Z,48.00
2022-07-29T20:30:08.335Z,48.94
2022-07-29T20:32:35.639Z,49.10
2022-07-29T20:35:02.347Z,50.91
2022-07-29T20:37:29.148Z,50.48
2022-07-29T20:39:55.880Z,51.20
2022-07-29T20:42:22.593Z,51.59
2022-07-29T20:44:54.044Z,51.81
2022-07-29T20:47:22.453Z,52.23
2022-07-29T20:49:49.132Z,52.44
2022-07-29T20:52:16.551Z,53.41
2022-07-29T20:54:43.294Z,54.10
2022-07-29T20:57:09.792Z,53.69
2022-07-29T20:59:36.376Z,54.28
2022-07-29T21:02:03.357Z,53.95
2022-07-29T21:04:30.753Z,54.23
2022-07-29T21:06:59.389Z,54.75
2022-07-29T21:09:26.208Z,54.16
2022-07-29T21:11:52.756Z,55.29
2022-07-29T21:14:42.397Z,54.71
2022-07-29T21:17:09.005Z,54.71
2022-07-29T21:19:35.558Z,55.70
2022-07-29T21:22:02.211Z,55.77
2022-07-29T21:24:28.827Z,55.86
2022-07-29T21:27:20.579Z,56.07
2022-07-29T21:29:47.557Z,55.88
2022-07-29T21:32:29.459Z,56.48
2022-07-29T21:34:57.374Z,56.37
2022-07-29T21:37:23.988Z,57.59
2022-07-29T21:39:50.554Z,57.35
2022-07-29T21:42:19.051Z,57.85
2022-07-29T21:44:45.711Z,57.84
2022-07-29T21:47:12.253Z,57.96
2022-07-29T21:49:39.213Z,57.66
2022-07-29T21:52:06.325Z,58.30
2022-07-29T21:54:34.616Z,56.85
2022-07-29T21:57:01.267Z,57.24
2022-07-29T21:59:27.986Z,58.63
2022-07-29T22:01:54.917Z,59.01
2022-07-29T22:04:24.793Z,59.64
2022-07-29T22:06:51.580Z,60.42
2022-07-29T22:09:18.336Z,59.66
2022-07-29T22:11:45.131Z,60.56
2022-07-29T22:14:15.132Z,59.34
2022-07-29T22:16:41.875Z,60.38
2022-07-29T22:19:08.655Z,60.56
2022-07-29T22:21:35.393Z,60.98
2022-07-29T22:24:02.140Z,61.44
2022-07-29T22:26:28.828Z,60.72
2022-07-29T22:28:55.508Z,61.17
2022-07-29T22:31:22.222Z,61.93
2022-07-29T22:33:54.068Z,62.61
2022-07-29T22:36:20.739Z,62.55
2022-07-29T22:38:51.754Z,62.48
2022-07-29T22:41:18.716Z,62.36
2022-07-29T22:43:47.573Z,61.06
2022-07-29T22:46:14.357Z,62.46
2022-07-29T22:48:41.109Z,63.46
2022-07-29T22:51:07.919Z,64.02
2022-07-29T22:53:36.289Z,62.91
2022-07-29T22:56:05.893Z,62.84
2022-07-29T22:58:32.742Z,63.66
2022-07-29T23:01:02.483Z,63.78
2022-07-29T23:03:29.280Z,64.12
2022-07-29T23:05:56.209Z,62.80
2022-07-29T23:08:22.818Z,63.35
2022-07-29T23:10:49.659Z,64.26
2022-07-29T23:13:16.397Z,64.57
2022-07-29T23:15:43.094Z,63.62
2022-07-29T23:18:09.812Z,64.82
2022-07-29T23:20:36.931Z,64.29
2022-07-29T23:23:03.652Z,64.26
2022-07-29T23:25:30.294Z,66.03
2022-07-29T23:28:00.179Z,65.52
2022-07-29T23:30:27.276Z,66.04
2022-07-29T23:32:55.083Z,65.89
2022-07-29T23:35:21.980Z,65.95
2022-07-29T23:37:48.650Z,66.42
2022-07-29T23:40:15.415Z,67.41
2022-07-29T23:42:42.713Z,67.16
2022-07-29T23:45:10.516Z,66.17
2022-07-29T23:47:37.087Z,66.26
2022-07-29T23:50:04.994Z,66.43
2022-07-29T23:52:31.487Z,67.97
2022-07-29T23:55:36.907Z,68.54
2022-07-29T23:57:44.492Z,66.06
